Time;durP1;ratioP1;P1;durP2;ratioP2;P2;SDS_P1;SDS_P2;PMS_P1;PMS_P2;Temp;Humidity;BMP_temperature;BMP_pressure;BME280_temperature;BME280_humidity;BME280_pressure;Samples;Min_cycle;Max_cycle;Signal;HPM_P1;HPM_P2
2022/04/07 00:00:50;;;;;;;5.40;1.50;;;11.10;90.50;;;;;;5055688;28;20028;-84
2022/04/07 00:03:16;;;;;;;2.67;1.92;;;11.10;90.60;;;;;;5074438;28;20054;-84
2022/04/07 00:05:41;;;;;;;3.60;2.08;;;11.20;90.70;;;;;;5055255;28;20368;-85
2022/04/07 00:08:07;;;;;;;1.83;1.35;;;11.20;90.70;;;;;;5073041;28;20090;-84
2022/04/07 00:10:34;;;;;;;4.40;1.70;;;11.20;90.80;;;;;;5054554;28;20487;-86
2022/04/07 00:13:00;;;;;;;3.38;1.75;;;11.20;90.80;;;;;;5054830;28;20033;-84
2022/04/07 00:15:26;;;;;;;6.38;2.10;;;11.20;90.80;;;;;;5054336;28;20064;-84
2022/04/07 00:17:51;;;;;;;5.55;2.20;;;11.20;90.90;;;;;;5073289;28;20048;-85
2022/04/07 00:20:17;;;;;;;3.92;1.33;;;11.20;91.10;;;;;;5055566;28;20025;-85
2022/04/07 00:22:43;;;;;;;3.05;1.50;;;11.20;90.90;;;;;;5055778;28;20052;-84
2022/04/07 00:25:08;;;;;;;2.50;1.48;;;11.20;91.00;;;;;;5056035;28;20028;-85
2022/04/07 00:27:34;;;;;;;5.55;1.45;;;11.30;91.00;;;;;;5073063;28;20016;-86
2022/04/07 00:30:00;;;;;;;4.65;1.75;;;11.30;91.00;;;;;;5073364;28;20028;-84
2022/04/07 00:32:25;;;;;;;3.90;1.50;;;11.30;90.80;;;;;;5073573;28;20033;-87
2022/04/07 00:34:54;;;;;;;2.58;1.85;;;11.30;90.80;;;;;;5055107;28;20469;-85
2022/04/07 00:37:22;;;;;;;3.63;2.03;;;11.40;90.80;;;;;;5054119;28;20039;-86
2022/04/07 00:39:51;;;;;;;2.25;1.60;;;11.40;91.00;;;;;;5056800;28;20127;-85
2022/04/07 00:42:17;;;;;;;2.28;1.40;;;11.40;90.80;;;;;;5055579;28;20067;-85
2022/04/07 00:44:43;;;;;;;2.88;1.50;;;11.30;91.00;;;;;;5073238;28;20082;-84
2022/04/07 00:47:11;;;;;;;2.08;1.70;;;11.30;91.20;;;;;;5072372;28;20025;-84
2022/04/07 00:49:36;;;;;;;3.78;1.70;;;11.30;91.20;;;;;;5073141;28;20032;-85
2022/04/07 00:52:02;;;;;;;2.45;1.80;;;11.20;91.30;;;;;;5058985;28;20032;-84
2022/04/07 00:54:30;;;;;;;4.22;2.17;;;11.30;91.20;;;;;;5054086;28;20036;-86
2022/04/07 00:56:55;;;;;;;4.68;2.25;;;11.20;91.30;;;;;;5052416;28;20031;-84
2022/04/07 00:59:22;;;;;;;3.53;1.55;;;11.20;91.40;;;;;;5038572;28;20528;-84
2022/04/07 01:01:48;;;;;;;5.68;1.83;;;11.20;91.40;;;;;;5055444;28;20043;-84
2022/04/07 01:04:14;;;;;;;2.00;1.40;;;11.20;91.30;;;;;;5073296;28;20020;-84
2022/04/07 01:06:44;;;;;;;3.90;2.20;;;11.20;91.40;;;;;;5055021;28;20052;-86
2022/04/07 01:09:17;;;;;;;4.28;2.20;;;11.10;91.50;;;;;;5055747;28;20040;-85
2022/04/07 01:11:44;;;;;;;8.88;1.77;;;11.10;91.70;;;;;;5074406;28;20016;-86
2022/04/07 01:14:10;;;;;;;3.00;1.30;;;11.10;91.80;;;;;;5058174;28;20054;-85
2022/04/07 01:16:36;;;;;;;3.20;1.75;;;11.00;91.90;;;;;;5057644;28;20033;-85
2022/04/07 01:19:03;;;;;;;3.33;1.55;;;11.00;91.90;;;;;;5081778;28;20386;-85
2022/04/07 01:21:31;;;;;;;3.10;1.70;;;10.90;92.00;;;;;;5060096;28;20028;-86
2022/04/07 01:24:04;;;;;;;4.80;2.03;;;10.90;92.20;;;;;;5058015;28;20025;-85
2022/04/07 01:26:34;;;;;;;;;;;10.90;92.20;;;;;;5065104;28;20059;-85
2022/04/07 01:29:03;;;;;;;2.22;1.65;;;10.80;92.30;;;;;;5074704;28;19915;-85
2022/04/07 01:31:29;;;;;;;5.80;2.42;;;10.80;92.40;;;;;;5091018;28;20051;-87
2022/04/07 01:33:57;;;;;;;2.58;1.73;;;10.80;92.40;;;;;;5092020;28;20020;-86
2022/04/07 01:36:23;;;;;;;2.05;1.73;;;10.80;92.50;;;;;;5076518;28;20039;-85
2022/04/07 01:38:49;;;;;;;5.00;1.90;;;10.70;92.60;;;;;;5084342;28;20115;-87
2022/04/07 01:41:15;;;;;;;3.45;1.42;;;10.80;92.60;;;;;;5052718;28;20059;-86
2022/04/07 01:43:42;;;;;;;5.68;1.67;;;10.80;92.40;;;;;;5055589;28;20036;-86
2022/04/07 01:46:12;;;;;;;9.65;2.13;;;10.80;92.50;;;;;;5072790;28;20020;-85
2022/04/07 01:48:38;;;;;;;6.32;1.75;;;10.70;92.60;;;;;;5054342;28;20464;-84
2022/04/07 01:51:03;;;;;;;1.88;1.60;;;10.70;92.60;;;;;;5072862;28;20027;-84
2022/04/07 01:53:29;;;;;;;3.22;1.48;;;10.70;92.60;;;;;;5054277;28;20029;-84
2022/04/07 01:55:55;;;;;;;8.00;1.88;;;10.70;92.70;;;;;;5053593;28;20111;-85
2022/04/07 01:58:22;;;;;;;2.22;1.33;;;10.70;92.60;;;;;;5048764;28;20045;-85
2022/04/07 02:00:48;;;;;;;2.22;1.20;;;10.70;92.70;;;;;;5059221;28;20024;-86
2022/04/07 02:03:13;;;;;;;4.15;2.05;;;10.70;92.80;;;;;;5072244;28;20034;-86
2022/04/07 02:05:39;;;;;;;4.32;1.85;;;10.70;92.80;;;;;;5053362;28;20046;-86
2022/04/07 02:08:05;;;;;;;3.08;1.45;;;10.70;92.70;;;;;;5053790;28;20028;-86
2022/04/07 02:10:32;;;;;;;5.45;1.42;;;10.80;92.70;;;;;;5053550;28;20033;-85
2022/04/07 02:12:58;;;;;;;4.18;1.90;;;10.80;92.70;;;;;;5052622;28;20107;-85
2022/04/07 02:15:26;;;;;;;4.35;1.83;;;10.80;92.90;;;;;;5070736;28;20032;-86
2022/04/07 02:17:51;;;;;;;2.55;1.38;;;10.80;92.90;;;;;;5053277;28;20441;-85
2022/04/07 02:20:18;;;;;;;3.42;1.70;;;10.90;92.80;;;;;;5052897;28;20024;-87
2022/04/07 02:22:44;;;;;;;4.93;1.48;;;10.90;92.80;;;;;;5072224;28;20025;-87
2022/04/07 02:25:09;;;;;;;2.55;1.40;;;11.00;92.90;;;;;;5052292;28;20031;-85
2022/04/07 02:27:39;;;;;;;3.33;1.35;;;11.00;92.70;;;;;;5070516;28;20392;-87
2022/04/07 02:30:11;;;;;;;4.60;1.80;;;11.10;92.70;;;;;;5071039;28;20658;-85
2022/04/07 02:32:37;;;;;;;5.05;1.38;;;11.10;92.60;;;;;;5052687;28;20032;-87
2022/04/07 02:35:03;;;;;;;2.85;1.25;;;11.20;92.60;;;;;;5071143;28;20021;-85
2022/04/07 02:37:28;;;;;;;3.33;1.48;;;11.20;92.60;;;;;;5070503;28;20024;-85
2022/04/07 02:39:54;;;;;;;2.72;2.08;;;11.20;92.60;;;;;;5071467;28;20029;-85
2022/04/07 02:42:20;;;;;;;3.35;1.60;;;11.20;92.70;;;;;;5052826;28;20059;-85
2022/04/07 02:44:45;;;;;;;2.10;1.50;;;11.20;92.80;;;;;;5052190;28;20028;-85
2022/04/07 02:47:11;;;;;;;1.92;1.40;;;11.30;92.50;;;;;;5070625;28;20034;-87
2022/04/07 02:49:39;;;;;;;2.53;1.50;;;11.40;92.70;;;;;;5053215;28;20035;-86
2022/04/07 02:52:07;;;;;;;1.98;1.10;;;11.30;92.60;;;;;;5070929;28;20028;-87
2022/04/07 02:54:33;;;;;;;6.88;1.38;;;11.30;92.60;;;;;;5071246;28;20090;-86
2022/04/07 02:56:58;;;;;;;2.97;1.63;;;11.30;92.80;;;;;;5070602;28;20492;-86
2022/04/07 02:59:24;;;;;;;2.80;1.20;;;11.20;92.70;;;;;;5052528;28;20059;-86
2022/04/07 03:01:51;;;;;;;3.20;1.80;;;11.20;92.80;;;;;;5053327;28;20032;-88
2022/04/07 03:04:17;;;;;;;1.35;1.25;;;11.20;92.90;;;;;;5070315;28;20012;-86
2022/04/07 03:06:43;;;;;;;6.22;1.50;;;11.10;93.10;;;;;;5052279;28;20025;-87
2022/04/07 03:09:08;;;;;;;3.10;1.30;;;11.00;93.20;;;;;;5070441;28;20035;-85
2022/04/07 03:11:34;;;;;;;3.63;1.60;;;10.90;93.40;;;;;;5052880;28;20032;-86
2022/04/07 03:13:59;;;;;;;2.20;1.50;;;10.90;93.70;;;;;;5052208;28;20029;-86
2022/04/07 03:16:25;;;;;;;3.30;1.80;;;10.90;93.90;;;;;;5051889;28;20119;-85
2022/04/07 03:18:50;;;;;;;5.55;1.90;;;10.90;93.90;;;;;;5053456;28;20024;-86
2022/04/07 03:21:16;;;;;;;2.83;1.05;;;10.80;94.00;;;;;;5069753;28;20023;-85
2022/04/07 03:23:41;;;;;;;8.40;1.88;;;10.90;94.00;;;;;;5076271;28;20021;-86
2022/04/07 03:26:07;;;;;;;3.25;1.67;;;10.90;94.00;;;;;;5058546;28;20408;-86
2022/04/07 03:28:32;;;;;;;5.03;2.17;;;10.90;94.10;;;;;;5053804;28;20087;-85
2022/04/07 03:30:58;;;;;;;1.80;1.42;;;11.00;94.00;;;;;;5059313;28;20121;-86
2022/04/07 03:33:23;;;;;;;3.30;2.13;;;11.00;93.90;;;;;;5076812;28;20112;-85
2022/04/07 03:35:49;;;;;;;3.35;1.55;;;11.10;93.90;;;;;;5076418;28;20032;-86
2022/04/07 03:38:15;;;;;;;2.50;1.58;;;11.10;93.90;;;;;;5058798;28;20047;-86
2022/04/07 03:40:41;;;;;;;2.00;1.30;;;11.20;94.00;;;;;;5058629;28;20075;-85
2022/04/07 03:43:06;;;;;;;1.63;1.27;;;11.20;93.90;;;;;;5058647;28;20086;-86
2022/04/07 03:45:32;;;;;;;5.72;1.63;;;11.20;93.80;;;;;;5058814;28;20055;-87
2022/04/07 03:47:57;;;;;;;2.05;1.25;;;11.30;93.90;;;;;;5076311;28;20364;-87
2022/04/07 03:50:23;;;;;;;4.25;1.40;;;11.30;93.70;;;;;;5077657;28;20024;-85
2022/04/07 03:52:48;;;;;;;3.85;1.48;;;11.30;93.70;;;;;;5058623;28;20437;-86
2022/04/07 03:55:14;;;;;;;4.30;1.80;;;11.30;93.80;;;;;;5077186;28;20461;-85
2022/04/07 03:57:40;;;;;;;2.17;1.52;;;11.30;93.80;;;;;;5060628;28;20119;-86
2022/04/07 04:00:06;;;;;;;2.47;1.30;;;11.30;93.80;;;;;;5080188;28;20111;-86
2022/04/07 04:02:31;;;;;;;4.10;1.75;;;11.30;93.90;;;;;;5062707;28;20024;-86
2022/04/07 04:04:57;;;;;;;3.25;1.85;;;11.30;93.90;;;;;;5062695;28;20036;-86
2022/04/07 04:07:22;;;;;;;3.50;1.80;;;11.20;93.80;;;;;;5081513;28;20453;-86
2022/04/07 04:09:48;;;;;;;3.47;1.58;;;11.20;93.90;;;;;;5062454;28;20100;-84
2022/04/07 04:12:14;;;;;;;4.53;2.10;;;11.30;93.80;;;;;;5065373;28;20048;-84
2022/04/07 04:14:40;;;;;;;2.80;1.73;;;11.30;93.80;;;;;;5088545;28;20032;-85
2022/04/07 04:17:05;;;;;;;2.95;1.58;;;11.30;94.00;;;;;;5085823;28;20292;-87
2022/04/07 04:19:33;;;;;;;5.03;1.40;;;11.30;93.90;;;;;;5073283;28;20028;-86
2022/04/07 04:21:59;;;;;;;3.47;1.90;;;11.30;93.90;;;;;;5060613;28;20111;-86
2022/04/07 04:24:24;;;;;;;2.42;1.40;;;11.40;93.90;;;;;;5063177;28;20052;-86
2022/04/07 04:26:53;;;;;;;4.60;1.85;;;11.30;93.90;;;;;;5073940;28;20466;-85
2022/04/07 04:29:18;;;;;;;2.70;1.75;;;11.20;93.90;;;;;;5044147;28;20115;-87
2022/04/07 04:31:48;;;;;;;2.45;1.52;;;11.10;94.10;;;;;;5055000;28;20169;-85
2022/04/07 04:34:13;;;;;;;2.58;1.40;;;11.10;94.20;;;;;;5053001;28;20804;-85
2022/04/07 04:36:41;;;;;;;5.00;1.92;;;11.00;94.30;;;;;;5061430;28;20028;-86
2022/04/07 04:39:07;;;;;;;3.92;1.80;;;11.10;94.30;;;;;;5054814;28;20084;-86
2022/04/07 04:41:32;;;;;;;4.20;1.90;;;11.10;94.40;;;;;;5073046;28;20064;-85
2022/04/07 04:44:00;;;;;;;2.10;1.90;;;11.00;94.30;;;;;;5071426;28;20468;-86
2022/04/07 04:46:27;;;;;;;2.92;2.00;;;11.00;94.50;;;;;;5072063;28;20024;-86
2022/04/07 04:48:53;;;;;;;4.50;1.95;;;11.00;94.50;;;;;;5054614;28;20032;-85
2022/04/07 04:51:19;;;;;;;4.35;1.33;;;10.90;94.60;;;;;;5054167;28;20029;-86
2022/04/07 04:53:45;;;;;;;4.32;1.35;;;10.90;94.60;;;;;;5055017;28;20154;-86
2022/04/07 04:56:10;;;;;;;3.55;1.58;;;11.00;94.80;;;;;;5071509;28;20082;-87
2022/04/07 04:58:35;;;;;;;3.00;1.77;;;11.00;94.40;;;;;;5072288;28;20028;-87
2022/04/07 05:01:01;;;;;;;2.00;1.63;;;10.90;94.50;;;;;;5052961;28;20025;-86
2022/04/07 05:03:27;;;;;;;2.33;1.60;;;11.00;94.50;;;;;;5076262;28;20100;-85
2022/04/07 05:05:53;;;;;;;2.90;1.85;;;11.10;94.30;;;;;;5053721;28;20032;-86
2022/04/07 05:08:19;;;;;;;2.20;1.42;;;11.10;94.10;;;;;;5055553;28;20086;-85
2022/04/07 05:10:44;;;;;;;5.60;1.25;;;11.20;94.20;;;;;;5053885;28;20611;-86
2022/04/07 05:13:10;;;;;;;2.05;0.98;;;11.30;94.20;;;;;;5055175;28;20033;-86
2022/04/07 05:15:37;;;;;;;2.50;1.20;;;11.30;94.60;;;;;;5072820;28;20021;-85
2022/04/07 05:18:03;;;;;;;2.05;1.33;;;11.30;94.40;;;;;;5054454;28;20465;-85
2022/04/07 05:20:28;;;;;;;4.10;1.30;;;11.40;94.40;;;;;;5056579;28;20163;-86
2022/04/07 05:22:54;;;;;;;2.20;1.38;;;11.40;94.30;;;;;;5070266;28;20186;-85
2022/04/07 05:25:20;;;;;;;3.63;1.38;;;11.50;93.90;;;;;;5067706;28;20086;-85
2022/04/07 05:27:45;;;;;;;1.30;1.08;;;11.50;94.10;;;;;;5069056;28;20025;-87
2022/04/07 05:30:13;;;;;;;1.67;1.13;;;11.50;94.20;;;;;;5054871;28;20028;-85
2022/04/07 05:32:38;;;;;;;1.20;1.10;;;11.50;94.00;;;;;;5066980;28;20077;-86
2022/04/07 05:35:04;;;;;;;2.28;1.30;;;11.50;94.00;;;;;;5050825;28;20021;-86
2022/04/07 05:37:30;;;;;;;2.05;1.38;;;11.60;93.70;;;;;;5067049;28;20032;-86
2022/04/07 05:39:55;;;;;;;1.55;0.90;;;11.60;93.90;;;;;;5048137;28;20040;-85
2022/04/07 05:42:21;;;;;;;2.28;1.15;;;11.70;93.30;;;;;;5048172;28;20028;-85
2022/04/07 05:44:46;;;;;;;1.60;1.17;;;11.70;93.40;;;;;;5053355;28;20028;-84
2022/04/07 05:47:12;;;;;;;1.30;1.10;;;11.70;93.10;;;;;;5070641;28;20033;-85
2022/04/07 05:49:37;;;;;;;1.42;1.00;;;11.80;92.90;;;;;;5071841;28;20115;-85
2022/04/07 05:52:04;;;;;;;2.80;1.00;;;11.80;92.60;;;;;;5053201;28;20021;-86
2022/04/07 05:54:34;;;;;;;3.13;0.88;;;11.90;92.40;;;;;;5072200;28;20022;-86
2022/04/07 05:56:59;;;;;;;0.70;0.70;;;11.90;92.40;;;;;;5071002;28;20020;-86
2022/04/07 05:59:25;;;;;;;3.28;1.02;;;12.00;92.20;;;;;;5053362;28;20423;-87
2022/04/07 06:01:52;;;;;;;4.22;1.40;;;12.00;92.20;;;;;;5071258;28;20657;-85
2022/04/07 06:04:17;;;;;;;2.42;0.70;;;12.10;91.90;;;;;;5056216;28;20017;-86
2022/04/07 06:06:43;;;;;;;1.27;0.93;;;12.10;91.90;;;;;;5067153;28;20077;-86
2022/04/07 06:09:09;;;;;;;1.45;0.98;;;12.10;91.70;;;;;;5069252;28;20068;-86
2022/04/07 06:11:34;;;;;;;3.30;1.10;;;12.10;91.70;;;;;;5055422;28;20487;-85
2022/04/07 06:14:00;;;;;;;1.17;0.98;;;12.10;91.70;;;;;;5073380;28;20099;-86
2022/04/07 06:16:26;;;;;;;2.08;0.85;;;12.10;91.90;;;;;;5056010;28;20028;-85
2022/04/07 06:18:52;;;;;;;1.88;0.95;;;12.20;91.40;;;;;;5058782;28;20028;-86
2022/04/07 06:21:18;;;;;;;3.00;1.05;;;12.20;91.70;;;;;;5055885;28;21826;-86
2022/04/07 06:23:44;;;;;;;0.80;0.70;;;12.20;91.70;;;;;;5046553;28;20605;-85
2022/04/07 06:26:10;;;;;;;1.95;0.75;;;12.30;91.40;;;;;;5052564;28;20028;-86
2022/04/07 06:28:36;;;;;;;2.08;1.02;;;12.30;91.50;;;;;;5068902;28;20477;-85
2022/04/07 06:31:01;;;;;;;4.10;0.70;;;12.30;91.60;;;;;;5052195;28;20049;-87
2022/04/07 06:33:27;;;;;;;3.08;0.77;;;12.40;91.60;;;;;;5055122;28;20017;-86
2022/04/07 06:35:52;;;;;;;0.85;0.55;;;12.40;91.70;;;;;;5071205;28;20530;-86
2022/04/07 06:38:18;;;;;;;0.88;0.70;;;12.40;91.60;;;;;;5068013;28;20028;-85
2022/04/07 06:40:44;;;;;;;1.00;0.90;;;12.40;91.70;;;;;;5076871;28;20107;-85
2022/04/07 06:43:10;;;;;;;1.90;0.88;;;12.50;92.00;;;;;;5054157;28;20032;-86
2022/04/07 06:45:36;;;;;;;0.95;0.80;;;12.50;91.90;;;;;;5064405;28;20025;-86
2022/04/07 06:48:03;;;;;;;2.65;0.95;;;12.50;92.00;;;;;;5066737;28;20031;-85
2022/04/07 06:50:29;;;;;;;1.67;0.70;;;12.60;91.90;;;;;;5067008;28;20036;-85
2022/04/07 06:52:56;;;;;;;0.90;0.60;;;12.60;91.70;;;;;;5050091;28;20029;-84
2022/04/07 06:55:21;;;;;;;0.40;0.40;;;12.60;92.10;;;;;;5050014;28;20039;-86
2022/04/07 06:57:54;;;;;;;0.88;0.60;;;12.70;91.90;;;;;;5051235;28;20020;-87
2022/04/07 07:00:29;;;;;;;1.02;0.70;;;12.80;91.90;;;;;;5051684;28;20037;-85
2022/04/07 07:02:56;;;;;;;3.05;1.13;;;12.80;91.60;;;;;;5055307;28;20044;-86
2022/04/07 07:05:26;;;;;;;0.70;0.50;;;12.90;91.70;;;;;;5056572;28;20124;-86
2022/04/07 07:07:52;;;;;;;0.80;0.80;;;13.10;91.50;;;;;;5078347;28;20064;-85
2022/04/07 07:10:23;;;;;;;0.60;0.50;;;13.20;91.10;;;;;;5058245;28;20036;-85
2022/04/07 07:12:50;;;;;;;0.73;0.43;;;13.30;91.30;;;;;;5062193;28;20033;-85
2022/04/07 07:15:16;;;;;;;1.05;0.60;;;13.30;91.10;;;;;;5055743;28;20491;-86
2022/04/07 07:17:41;;;;;;;0.70;0.50;;;13.40;91.00;;;;;;5074249;28;20084;-83
2022/04/07 07:20:10;;;;;;;0.75;0.60;;;13.50;90.70;;;;;;5072616;28;20048;-85
2022/04/07 07:22:36;;;;;;;2.00;0.75;;;13.60;90.90;;;;;;5050778;28;20427;-85
2022/04/07 07:25:02;;;;;;;1.13;0.80;;;13.60;91.00;;;;;;5050219;28;20082;-84
2022/04/07 07:27:34;;;;;;;4.50;0.70;;;13.60;91.00;;;;;;5068950;28;20012;-85
2022/04/07 07:29:59;;;;;;;0.52;0.50;;;13.70;90.70;;;;;;5069538;28;20058;-84
2022/04/07 07:32:25;;;;;;;3.42;0.55;;;13.80;90.60;;;;;;5068057;28;20024;-86
2022/04/07 07:34:50;;;;;;;0.55;0.40;;;13.80;90.20;;;;;;5050814;28;20031;-82
2022/04/07 07:37:19;;;;;;;1.70;0.57;;;13.80;90.30;;;;;;5068097;28;20074;-82
2022/04/07 07:39:44;;;;;;;1.40;0.50;;;13.90;90.50;;;;;;5068680;28;20048;-85
2022/04/07 07:42:10;;;;;;;1.17;0.60;;;13.90;90.00;;;;;;5068018;28;20060;-84
2022/04/07 07:44:35;;;;;;;0.50;0.40;;;14.00;90.20;;;;;;5051168;28;20436;-86
2022/04/07 07:47:01;;;;;;;3.15;0.70;;;14.00;90.20;;;;;;5067723;28;20020;-85
2022/04/07 07:49:27;;;;;;;0.50;0.50;;;14.00;89.90;;;;;;5068738;28;20032;-85
2022/04/07 07:51:52;;;;;;;0.50;0.40;;;13.90;90.20;;;;;;5049742;28;20492;-85
2022/04/07 07:54:18;;;;;;;2.75;0.55;;;13.90;90.80;;;;;;5069125;28;20024;-85
2022/04/07 07:56:43;;;;;;;1.77;0.80;;;14.00;90.20;;;;;;5068104;28;20588;-86
2022/04/07 07:59:09;;;;;;;3.15;0.70;;;14.10;90.20;;;;;;5047438;28;20037;-86
2022/04/07 08:01:34;;;;;;;0.88;0.47;;;14.10;90.00;;;;;;5058190;28;20697;-86
2022/04/07 08:04:00;;;;;;;3.08;0.43;;;14.20;90.30;;;;;;5073129;28;20205;-85
2022/04/07 08:06:25;;;;;;;1.73;0.50;;;14.40;89.30;;;;;;5050552;28;20031;-87
2022/04/07 08:08:51;;;;;;;2.60;0.50;;;14.50;89.30;;;;;;5069057;28;20025;-85
2022/04/07 08:11:16;;;;;;;0.50;0.50;;;14.70;89.10;;;;;;5056568;28;20086;-84
2022/04/07 08:13:42;;;;;;;3.25;0.50;;;14.70;88.00;;;;;;5072764;28;20041;-85
2022/04/07 08:16:07;;;;;;;0.80;0.65;;;14.80;87.70;;;;;;5054094;28;20021;-87
2022/04/07 08:18:33;;;;;;;2.50;0.50;;;14.80;87.60;;;;;;5053604;28;20025;-84
2022/04/07 08:20:59;;;;;;;1.27;0.68;;;14.80;87.40;;;;;;5069510;28;20086;-86
2022/04/07 08:23:24;;;;;;;2.63;0.40;;;14.90;87.60;;;;;;5063424;28;20047;-85
2022/04/07 08:25:50;;;;;;;0.98;0.50;;;15.10;86.00;;;;;;5092652;28;20448;-85
2022/04/07 08:28:15;;;;;;;1.70;0.50;;;15.20;87.10;;;;;;5060913;28;20055;-84
2022/04/07 08:30:41;;;;;;;0.40;0.30;;;15.30;85.40;;;;;;5073034;28;20082;-84
2022/04/07 08:33:06;;;;;;;2.25;0.38;;;15.30;86.30;;;;;;5055827;28;20556;-86
2022/04/07 08:35:32;;;;;;;2.60;0.40;;;15.50;86.80;;;;;;5055189;28;20077;-85
2022/04/07 08:37:58;;;;;;;0.93;0.40;;;15.80;84.70;;;;;;5071454;28;20020;-84
2022/04/07 08:40:23;;;;;;;1.58;0.30;;;15.90;84.60;;;;;;5057248;28;20036;-86
2022/04/07 08:42:49;;;;;;;1.75;0.50;;;16.00;83.60;;;;;;5053617;28;20028;-85
2022/04/07 08:45:15;;;;;;;2.75;1.55;;;16.00;83.00;;;;;;5070970;28;20077;-85
2022/04/07 08:47:41;;;;;;;0.50;0.40;;;16.00;82.00;;;;;;5054432;28;20027;-85
2022/04/07 08:50:08;;;;;;;3.10;0.47;;;16.10;83.10;;;;;;5071831;28;20028;-85
2022/04/07 08:52:34;;;;;;;3.30;1.40;;;16.10;82.70;;;;;;5071577;28;20048;-85
2022/04/07 08:55:01;;;;;;;4.82;0.65;;;16.10;82.10;;;;;;5053108;28;20056;-86
2022/04/07 08:57:29;;;;;;;5.03;0.38;;;16.10;82.90;;;;;;5053033;28;20024;-85
2022/04/07 08:59:55;;;;;;;2.08;0.43;;;16.10;81.70;;;;;;5071850;28;20085;-86
2022/04/07 09:02:21;;;;;;;3.63;0.40;;;16.00;81.70;;;;;;5071289;28;20132;-87
2022/04/07 09:04:47;;;;;;;2.45;0.50;;;15.90;80.30;;;;;;5071505;28;20099;-85
2022/04/07 09:07:13;;;;;;;3.38;0.40;;;15.80;81.40;;;;;;5070674;28;20021;-85
2022/04/07 09:09:39;;;;;;;3.67;0.57;;;15.80;82.70;;;;;;5053553;28;20024;-86
2022/04/07 09:12:05;;;;;;;3.88;0.50;;;15.70;81.40;;;;;;5053495;28;20652;-86
2022/04/07 09:14:36;;;;;;;1.85;0.50;;;15.80;81.10;;;;;;5051596;28;20029;-85
2022/04/07 09:17:02;;;;;;;1.05;0.57;;;15.80;82.70;;;;;;5033001;28;20052;-86
2022/04/07 09:19:29;;;;;;;1.70;0.50;;;15.90;81.70;;;;;;5033758;28;20465;-86
2022/04/07 09:22:06;;;;;;;0.75;0.40;;;16.00;80.80;;;;;;5032203;28;20058;-84
2022/04/07 09:24:36;;;;;;;2.25;0.50;;;16.10;80.70;;;;;;5050884;28;20491;-85
2022/04/07 09:27:04;;;;;;;2.53;0.45;;;16.30;81.10;;;;;;5080720;28;20650;-85
2022/04/07 09:29:44;;;;;;;0.50;0.40;;;16.40;81.30;;;;;;5072441;28;20048;-87
2022/04/07 09:32:25;;;;;;;2.75;0.82;;;16.60;81.00;;;;;;5052656;28;20056;-85
2022/04/07 09:34:53;;;;;;;4.68;0.40;;;16.90;78.60;;;;;;5070510;28;20091;-85
2022/04/07 09:37:20;;;;;;;2.40;0.55;;;16.90;78.50;;;;;;5070708;28;20104;-86
2022/04/07 09:39:49;;;;;;;2.30;0.32;;;16.90;79.20;;;;;;5053495;28;20024;-86
2022/04/07 09:42:29;;;;;;;3.13;0.52;;;16.80;77.50;;;;;;5074629;28;20628;-85
2022/04/07 09:44:58;;;;;;;1.85;0.47;;;16.70;77.90;;;;;;5075701;28;20147;-84
2022/04/07 09:47:34;;;;;;;0.70;0.50;;;16.60;80.40;;;;;;5069417;28;20048;-85
2022/04/07 09:49:59;;;;;;;5.15;0.93;;;16.50;78.90;;;;;;5070879;28;20063;-85
2022/04/07 09:52:25;;;;;;;0.50;0.30;;;16.50;79.80;;;;;;5064067;28;20055;-85
2022/04/07 09:54:51;;;;;;;1.58;0.40;;;16.50;80.90;;;;;;5079158;28;20380;-85
2022/04/07 09:57:20;;;;;;;1.75;0.38;;;16.60;79.80;;;;;;5070762;28;20016;-85
2022/04/07 09:59:46;;;;;;;1.48;0.38;;;16.60;78.40;;;;;;5071294;28;20024;-84
2022/04/07 10:02:11;;;;;;;2.53;0.57;;;16.50;79.00;;;;;;5051342;28;20082;-85
2022/04/07 10:04:38;;;;;;;1.90;0.50;;;16.30;79.20;;;;;;5069586;28;20056;-84
2022/04/07 10:07:05;;;;;;;2.97;0.30;;;16.30;78.80;;;;;;5071020;28;20021;-86
2022/04/07 10:09:31;;;;;;;1.63;0.38;;;16.10;79.50;;;;;;5053910;28;20392;-86
2022/04/07 10:11:59;;;;;;;1.13;0.30;;;16.00;80.30;;;;;;5073960;28;20020;-84
2022/04/07 10:14:29;;;;;;;8.70;0.75;;;16.00;80.30;;;;;;5044143;28;20713;-87
2022/04/07 10:16:54;;;;;;;5.15;0.45;;;16.10;80.50;;;;;;5067669;28;20078;-88
2022/04/07 10:19:29;;;;;;;14.48;0.98;;;16.10;80.10;;;;;;5070952;28;20036;-86
2022/04/07 10:22:08;;;;;;;3.97;0.95;;;16.10;79.70;;;;;;5046110;28;20033;-85
2022/04/07 10:24:37;;;;;;;5.00;0.45;;;16.00;80.50;;;;;;5068732;28;20103;-86
2022/04/07 10:27:08;;;;;;;1.00;0.55;;;15.80;80.20;;;;;;5063497;28;20021;-86
2022/04/07 10:29:34;;;;;;;0.85;0.40;;;15.60;81.00;;;;;;5052877;28;20085;-85
2022/04/07 10:32:12;;;;;;;5.88;0.57;;;15.60;81.20;;;;;;5059712;28;20028;-85
2022/04/07 10:34:42;;;;;;;1.48;0.50;;;15.60;82.10;;;;;;5066970;28;20032;-85
2022/04/07 10:37:09;;;;;;;0.68;0.47;;;15.60;81.40;;;;;;5056839;28;20040;-84
2022/04/07 10:39:39;;;;;;;7.70;0.60;;;15.60;81.80;;;;;;5049339;28;20448;-85
2022/04/07 10:42:06;;;;;;;2.85;0.38;;;15.60;82.50;;;;;;5043581;28;20450;-85
2022/04/07 10:44:33;;;;;;;3.90;1.08;;;15.60;82.60;;;;;;5059549;28;20416;-85
2022/04/07 10:47:07;;;;;;;7.40;0.50;;;15.60;81.90;;;;;;5069814;28;20020;-87
2022/04/07 10:49:33;;;;;;;8.77;0.60;;;15.60;81.90;;;;;;5053476;28;20040;-86
2022/04/07 10:52:03;;;;;;;10.77;0.57;;;15.50;81.80;;;;;;5067224;28;20089;-86
2022/04/07 10:54:29;;;;;;;6.60;0.57;;;15.50;81.40;;;;;;5066847;28;20020;-85
2022/04/07 10:56:59;;;;;;;7.35;0.63;;;15.40;82.20;;;;;;5074520;28;20716;-85
2022/04/07 10:59:31;;;;;;;14.27;1.40;;;15.20;82.60;;;;;;5072961;28;20055;-85
2022/04/07 11:02:05;;;;;;;9.98;2.22;;;15.20;83.90;;;;;;5065815;28;20028;-85
2022/04/07 11:04:39;;;;;;;13.75;0.93;;;15.10;84.10;;;;;;5049474;28;20109;-84
2022/04/07 11:07:05;;;;;;;7.72;0.70;;;15.10;84.50;;;;;;5075319;28;20043;-84
2022/04/07 11:09:45;;;;;;;17.08;1.65;;;15.10;84.70;;;;;;5049036;28;20415;-86
2022/04/07 11:12:23;;;;;;;7.97;0.82;;;15.20;83.20;;;;;;5051193;28;20420;-86
2022/04/07 11:14:56;;;;;;;12.15;0.82;;;15.20;83.10;;;;;;5067951;28;20115;-85
2022/04/07 11:17:34;;;;;;;14.27;0.70;;;15.20;84.00;;;;;;5073569;28;20752;-86
2022/04/07 11:20:19;;;;;;;6.10;1.63;;;15.30;83.80;;;;;;5069260;28;20032;-84
2022/04/07 11:23:13;;;;;;;17.95;0.70;;;15.40;83.70;;;;;;5058076;28;20162;-88
2022/04/07 11:25:43;;;;;;;3.80;1.35;;;15.30;83.10;;;;;;5066798;28;20103;-85
2022/04/07 11:28:19;;;;;;;1.30;0.40;;;15.20;83.70;;;;;;5075486;28;20020;-84
2022/04/07 11:30:50;;;;;;;3.50;0.60;;;15.20;83.30;;;;;;5069536;28;20101;-85
2022/04/07 11:33:19;;;;;;;13.27;1.67;;;15.10;84.70;;;;;;5050578;28;20028;-85
2022/04/07 11:36:07;;;;;;;7.65;0.85;;;15.00;84.40;;;;;;5067310;28;20025;-86
2022/04/07 11:38:45;;;;;;;9.43;1.02;;;15.00;85.10;;;;;;5057951;28;20035;-85
2022/04/07 11:41:16;;;;;;;16.02;1.40;;;14.90;84.60;;;;;;5049553;28;20036;-85
2022/04/07 11:43:47;;;;;;;10.32;0.88;;;14.90;84.90;;;;;;5048322;28;20372;-85
2022/04/07 11:46:26;;;;;;;8.85;0.90;;;15.00;84.70;;;;;;5069348;28;20029;-86
2022/04/07 11:48:55;;;;;;;6.82;1.17;;;15.00;85.50;;;;;;5056462;28;20120;-85
2022/04/07 11:51:24;;;;;;;10.63;0.98;;;15.10;85.60;;;;;;5070919;28;20039;-85
2022/04/07 11:53:54;;;;;;;4.85;0.55;;;15.10;86.70;;;;;;5069589;28;20029;-83
2022/04/07 11:56:21;;;;;;;7.68;0.50;;;15.20;84.90;;;;;;5051578;28;20064;-85
2022/04/07 11:59:02;;;;;;;5.22;0.43;;;15.40;84.80;;;;;;5056364;28;20525;-84
2022/04/07 12:01:28;;;;;;;11.15;0.73;;;15.50;85.30;;;;;;5054262;28;20040;-85
2022/04/07 12:03:56;;;;;;;9.25;1.02;;;15.50;84.20;;;;;;5071259;28;20021;-85
2022/04/07 12:06:22;;;;;;;8.48;1.13;;;15.50;84.90;;;;;;5070380;28;20630;-84
2022/04/07 12:08:50;;;;;;;5.20;1.05;;;15.50;84.80;;;;;;5069957;28;20067;-86
2022/04/07 12:11:15;;;;;;;4.53;1.05;;;15.60;85.00;;;;;;5071318;28;20409;-85
2022/04/07 12:13:41;;;;;;;4.15;0.40;;;15.70;84.70;;;;;;5069762;28;20050;-85
2022/04/07 12:16:10;;;;;;;9.48;1.95;;;15.70;84.30;;;;;;5080400;28;20016;-85
2022/04/07 12:18:36;;;;;;;4.70;0.70;;;15.60;84.40;;;;;;5073513;28;20069;-83
2022/04/07 12:21:05;;;;;;;2.83;0.43;;;15.50;85.80;;;;;;5070602;28;20029;-84
2022/04/07 12:23:31;;;;;;;10.07;1.17;;;15.50;85.80;;;;;;5053471;28;20035;-84
2022/04/07 12:25:59;;;;;;;9.20;1.00;;;15.50;85.40;;;;;;5071683;28;20073;-84
2022/04/07 12:28:33;;;;;;;8.32;0.60;;;15.60;84.80;;;;;;5052367;28;20498;-85
2022/04/07 12:30:59;;;;;;;4.78;1.13;;;15.50;85.80;;;;;;5049268;28;20021;-85
2022/04/07 12:33:38;;;;;;;10.57;1.00;;;15.40;85.30;;;;;;5073454;28;20035;-84
2022/04/07 12:36:05;;;;;;;14.88;1.92;;;15.40;85.70;;;;;;5053830;28;20599;-87
2022/04/07 12:38:30;;;;;;;6.55;1.45;;;15.40;85.50;;;;;;5068528;28;20461;-85
2022/04/07 12:40:56;;;;;;;9.80;1.75;;;15.50;85.70;;;;;;5073205;28;20058;-85
2022/04/07 12:43:45;;;;;;;2.63;0.52;;;15.40;85.70;;;;;;5055871;28;20025;-85
2022/04/07 12:46:11;;;;;;;6.95;0.80;;;15.40;86.80;;;;;;5064175;28;20028;-85